Nearby METAR Reports

 

EGSS - Stansted Airport, United Kingdom
Distance from station: NW 15mi, 24km
Updated: 24/03/2019 22:50
Mostly cloudy
Mostly cloudy
 Wind from W
Wind: W 9 mph , 15 km/h
Temperature: 7°C
Wind Chill: 4°C
Dew Point: 2°C
Humidity: 71%
Barometer: 1027 hPa
Clouds: Mostly cloudy
Visibility: 6 miles , 10 km
Cloud details: Mostly cloudy 1463 m
2019/03/24 22:50 EGSS 242250Z AUTO 28008KT 9999 BKN048 07/02 Q1027
EGMC - Southend-On-Sea, United Kingdom
Distance from station: SE 15mi, 25km
Updated: 24/03/2019 22:50
Clear
Clear
 Wind from W
Wind: W 10 mph , 17 km/h
Temperature: 8°C
Wind Chill: 5°C
Dew Point: 1°C
Humidity: 62%
Barometer: 1028 hPa
Summary: Clear
Visibility: greater than 7 miles , 10 km
2019/03/24 22:50 EGMC 242250Z 28009KT CAVOK 08/01 Q1028
 
EGLC - London City Airp, United Kingdom
Distance from station: SW 24mi, 39km
Updated: 24/03/2019 22:50
Clear
Clear
 Wind from W
Wind: W 14 mph , 22 km/h
Temperature: 9°C
Wind Chill: 6°C
Dew Point: 2°C
Humidity: 62%
Barometer: 1028 hPa
Clouds: Clear
Visibility: 6 miles , 10 km
2019/03/24 22:50 EGLC 242250Z AUTO 28012KT 9999 NCD 09/02 Q1028
EGUW - Wattisham Raf, United Kingdom
Distance from station: NE 34mi, 54km
Updated: 24/03/2019 22:50
Mostly cloudy
Mostly cloudy
 Wind from W
Wind: W 14 mph , 22 km/h
Temperature: 7°C
Wind Chill: 4°C
Dew Point: 3°C
Humidity: 76%
Barometer: 1026 hPa
Clouds: Mostly cloudy
Visibility: 6 miles , 10 km
Cloud details: Few Clouds 1341 m
Mostly cloudy 1524 m
2019/03/24 22:50 EGUW 242250Z AUTO 28012KT 9999 FEW044/// BKN050/// 07/03 Q1026
 
EGGW - Luton Airport, United Kingdom
Distance from station: WNW 37mi, 59km
Updated: 24/03/2019 22:50
Mostly cloudy
Mostly cloudy
 Wind from W
Wind: W 14 mph , 22 km/h
Temperature: 6°C
Wind Chill: 2°C
Dew Point: 2°C
Humidity: 76%
Barometer: 1028 hPa
Clouds: Mostly cloudy
Visibility: 6 miles , 10 km
Cloud details: Mostly cloudy 1463 m
2019/03/24 22:50 EGGW 242250Z AUTO 27012KT 9999 BKN048 06/02 Q1028
EGWU - Northolt Raf, United Kingdom
Distance from station: WSW 40mi, 64km
Updated: 24/03/2019 22:50
Clear
Clear
 Wind from WNW
Wind: WNW 5 mph , 7 km/h
Temperature: 6°C
Wind Chill: 4°C
Dew Point: 1°C
Humidity: 71%
Barometer: 1028 hPa
Clouds: Clear
Visibility: 6 miles , 10 km
2019/03/24 22:50 EGWU 242250Z AUTO 29004KT 9999 // NCD 06/01 Q1028